createdAt,value
2019-04-16T00:00:30.982Z,88.92
2019-04-16T00:02:59.945Z,89.80
2019-04-16T00:05:30.117Z,93.82
2019-04-16T00:08:26.494Z,84.00
2019-04-16T00:10:41.323Z,87.17
2019-04-16T00:13:17.548Z,87.90
2019-04-16T00:15:46.044Z,88.47
2019-04-16T00:18:18.469Z,85.92
2019-04-16T00:20:55.228Z,81.82
2019-04-16T00:23:34.457Z,85.32
2019-04-16T00:26:02.920Z,76.63
2019-04-16T00:28:31.492Z,77.60
2019-04-16T00:30:59.966Z,82.22
2019-04-16T00:33:28.441Z,74.75
2019-04-16T00:35:56.985Z,72.37
2019-04-16T00:38:25.476Z,75.32
2019-04-16T00:40:53.956Z,85.62
2019-04-16T00:43:22.457Z,76.57
2019-04-16T00:45:50.992Z,72.00
2019-04-16T00:48:19.499Z,72.32
2019-04-16T00:50:48.012Z,73.12
2019-04-16T00:53:16.531Z,73.28
2019-04-16T00:55:45.805Z,70.90
2019-04-16T00:58:14.482Z,70.57
2019-04-16T01:00:42.993Z,72.17
2019-04-16T01:03:13.136Z,67.42
2019-04-16T01:05:41.634Z,70.75
2019-04-16T01:08:10.122Z,73.28
2019-04-16T01:10:38.587Z,77.10
2019-04-16T01:13:07.102Z,64.90
2019-04-16T01:15:35.556Z,64.50
2019-04-16T01:18:08.098Z,74.24
2019-04-16T01:20:35.084Z,66.87
2019-04-16T01:23:03.620Z,61.05
2019-04-16T01:25:32.121Z,67.22
2019-04-16T01:28:02.221Z,61.83
2019-04-16T01:30:36.324Z,66.70
2019-04-16T01:33:07.134Z,65.95
2019-04-16T01:35:39.940Z,63.28
2019-04-16T01:38:27.829Z,66.72
2019-04-16T01:41:06.063Z,66.82
2019-04-16T01:43:34.607Z,70.12
2019-04-16T01:46:03.107Z,60.58
2019-04-16T01:48:31.580Z,58.65
2019-04-16T01:51:00.078Z,56.02
2019-04-16T01:53:28.543Z,54.20
2019-04-16T01:55:57.752Z,44.15
2019-04-16T01:58:26.286Z,48.98
2019-04-16T02:00:54.844Z,56.50
2019-04-16T02:03:23.413Z,58.98
2019-04-16T02:05:54.559Z,53.70
2019-04-16T02:08:22.257Z,59.90
2019-04-16T02:10:50.792Z,55.20
2019-04-16T02:13:19.363Z,58.80
2019-04-16T02:15:50.614Z,60.30
2019-04-16T02:18:18.104Z,59.10
2019-04-16T02:20:46.571Z,52.55
2019-04-16T02:23:16.739Z,54.23
2019-04-16T02:25:45.497Z,48.23
2019-04-16T02:28:14.014Z,56.97
2019-04-16T02:30:42.573Z,52.08
2019-04-16T02:33:11.174Z,61.85
2019-04-16T02:35:39.621Z,50.07
2019-04-16T02:38:12.271Z,54.33
2019-04-16T02:40:38.789Z,51.02
2019-04-16T02:43:08.167Z,49.15
2019-04-16T02:45:37.002Z,53.13
2019-04-16T02:48:05.802Z,45.95
2019-04-16T02:50:42.020Z,51.90
2019-04-16T02:53:28.081Z,43.80
2019-04-16T02:55:58.295Z,49.38
2019-04-16T02:58:33.981Z,44.60
2019-04-16T03:01:00.411Z,51.92
2019-04-16T03:03:30.521Z,48.57
2019-04-16T03:06:01.043Z,41.53
2019-04-16T03:08:29.272Z,51.65
2019-04-16T03:10:57.946Z,45.48
2019-04-16T03:13:26.955Z,49.93
2019-04-16T03:15:57.251Z,48.15
2019-04-16T03:18:27.505Z,39.43
2019-04-16T03:20:56.648Z,50.48
2019-04-16T03:23:25.267Z,39.70
2019-04-16T03:25:53.733Z,46.88
2019-04-16T03:28:23.582Z,43.23
2019-04-16T03:30:52.515Z,51.67
2019-04-16T03:33:20.958Z,48.23
2019-04-16T03:35:49.525Z,50.23
2019-04-16T03:38:17.995Z,50.05
2019-04-16T03:40:46.483Z,45.03
2019-04-16T03:43:14.996Z,44.95
2019-04-16T03:45:43.463Z,46.33
2019-04-16T03:48:11.964Z,42.00
2019-04-16T03:50:40.458Z,43.23
2019-04-16T03:53:08.947Z,49.65
2019-04-16T03:55:37.415Z,49.38
2019-04-16T03:58:07.190Z,42.85
2019-04-16T04:00:36.296Z,43.40
2019-04-16T04:03:05.023Z,45.45
2019-04-16T04:05:34.898Z,45.17
2019-04-16T04:08:04.921Z,47.40
2019-04-16T04:10:36.800Z,42.50
2019-04-16T04:13:05.129Z,51.75
2019-04-16T04:15:33.825Z,46.98
2019-04-16T04:18:02.273Z,46.98
2019-04-16T04:20:31.183Z,39.63
2019-04-16T04:22:59.674Z,39.93
2019-04-16T04:25:28.264Z,49.03
2019-04-16T04:27:56.763Z,46.65
2019-04-16T04:30:28.703Z,49.60
2019-04-16T04:32:56.154Z,54.93
2019-04-16T04:35:24.626Z,46.68
2019-04-16T04:37:53.094Z,51.50
2019-04-16T04:40:21.574Z,52.83
2019-04-16T04:42:50.220Z,43.35
2019-04-16T04:45:18.716Z,42.40
2019-04-16T04:47:51.003Z,51.00
2019-04-16T04:50:17.571Z,38.67
2019-04-16T04:52:46.873Z,48.57
2019-04-16T04:55:15.643Z,52.73
2019-04-16T04:57:44.196Z,56.40
2019-04-16T05:00:13.803Z,54.40
2019-04-16T05:02:43.645Z,57.20
2019-04-16T05:05:16.738Z,62.38
2019-04-16T05:07:45.233Z,57.45
2019-04-16T05:10:13.870Z,62.80
2019-04-16T05:12:42.873Z,63.80
2019-04-16T05:15:11.795Z,54.80
2019-04-16T05:17:40.268Z,69.62
2019-04-16T05:20:09.087Z,70.47
2019-04-16T05:22:37.564Z,61.73
2019-04-16T05:25:06.663Z,64.90
2019-04-16T05:27:40.249Z,63.10
2019-04-16T05:30:07.115Z,56.35
2019-04-16T05:32:35.632Z,68.60
2019-04-16T05:35:10.273Z,57.55
2019-04-16T05:37:37.782Z,57.40
2019-04-16T05:40:08.547Z,57.80
2019-04-16T05:42:37.011Z,55.23
2019-04-16T05:45:07.363Z,51.58
2019-04-16T05:47:36.007Z,48.10
2019-04-16T05:50:05.615Z,51.02
2019-04-16T05:52:35.737Z,42.57
2019-04-16T05:55:23.352Z,46.42
2019-04-16T05:57:57.966Z,46.88
2019-04-16T06:00:33.847Z,45.17
2019-04-16T06:03:02.348Z,46.70
2019-04-16T06:05:30.935Z,40.85
2019-04-16T06:08:10.318Z,43.38
2019-04-16T06:10:39.252Z,43.15
2019-04-16T06:13:24.661Z,42.85
2019-04-16T06:16:00.883Z,37.98
2019-04-16T06:18:43.071Z,38.70
2019-04-16T06:21:29.676Z,41.37
2019-04-16T06:24:16.259Z,35.80
2019-04-16T06:27:02.935Z,31.12
2019-04-16T06:29:38.798Z,38.90
2019-04-16T06:32:14.861Z,41.75
2019-04-16T06:34:57.071Z,36.75
2019-04-16T06:37:45.775Z,38.05
2019-04-16T06:40:32.877Z,41.60
2019-04-16T06:43:05.622Z,41.18
2019-04-16T06:45:37.049Z,36.25
2019-04-16T06:48:12.854Z,33.42
2019-04-16T06:50:42.274Z,31.33
2019-04-16T06:53:12.460Z,34.13
2019-04-16T06:55:58.492Z,35.03
2019-04-16T06:58:50.861Z,36.28
2019-04-16T07:01:29.063Z,35.88
2019-04-16T07:03:59.961Z,32.20
2019-04-16T07:06:39.371Z,31.02
2019-04-16T07:09:25.805Z,29.27
2019-04-16T07:11:54.946Z,27.17
2019-04-16T07:14:23.644Z,21.15
2019-04-16T07:16:52.100Z,34.92
2019-04-16T07:19:20.586Z,22.45
2019-04-16T07:21:49.965Z,29.55
2019-04-16T07:24:22.152Z,28.60
2019-04-16T07:26:49.024Z,27.17
2019-04-16T07:29:31.562Z,27.62
2019-04-16T07:32:03.093Z,25.30
2019-04-16T07:34:48.496Z,25.20
2019-04-16T07:37:24.314Z,40.52
2019-04-16T07:40:10.710Z,26.55
2019-04-16T07:42:51.856Z,23.55
2019-04-16T07:45:18.123Z,23.30
2019-04-16T07:47:57.437Z,26.55
2019-04-16T07:50:44.815Z,24.37
2019-04-16T07:53:31.107Z,26.82
2019-04-16T07:56:04.222Z,21.05
2019-04-16T07:58:32.757Z,21.95
2019-04-16T08:01:01.624Z,21.68
2019-04-16T08:03:30.168Z,19.52
2019-04-16T08:05:58.722Z,24.30
2019-04-16T08:08:27.194Z,19.70
2019-04-16T08:10:55.998Z,19.62
2019-04-16T08:13:26.925Z,21.37
2019-04-16T08:15:57.044Z,27.97
2019-04-16T08:18:27.326Z,20.43
2019-04-16T08:21:01.668Z,18.27
2019-04-16T08:23:27.721Z,18.23
2019-04-16T08:26:03.529Z,19.60
2019-04-16T08:28:28.151Z,32.38
2019-04-16T08:30:56.637Z,16.17
2019-04-16T08:33:28.223Z,17.42
2019-04-16T08:35:55.337Z,15.20
2019-04-16T08:38:26.043Z,14.33
2019-04-16T08:40:54.102Z,12.90
2019-04-16T08:43:22.653Z,13.55
2019-04-16T08:45:51.194Z,20.17
2019-04-16T08:48:19.696Z,14.60
2019-04-16T08:50:49.500Z,15.68
2019-04-16T08:53:18.029Z,17.85
2019-04-16T08:55:46.530Z,21.83
2019-04-16T08:58:15.010Z,19.03
2019-04-16T09:00:46.675Z,19.37
2019-04-16T09:03:15.603Z,21.10
2019-04-16T09:05:44.236Z,13.38
2019-04-16T09:08:14.339Z,15.98
2019-04-16T09:10:44.610Z,12.63
2019-04-16T09:13:17.671Z,12.85
2019-04-16T09:15:46.244Z,11.93
2019-04-16T09:18:25.366Z,15.40
2019-04-16T09:20:53.941Z,33.30
2019-04-16T09:23:22.856Z,48.85
2019-04-16T09:26:11.275Z,22.73
2019-04-16T09:28:31.058Z,39.13
2019-04-16T09:31:12.749Z,50.80
2019-04-16T09:33:42.857Z,71.05
2019-04-16T09:36:27.977Z,14.25
2019-04-16T09:38:58.091Z,12.28
2019-04-16T09:41:31.221Z,17.50
2019-04-16T09:44:01.066Z,13.93
2019-04-16T09:46:49.544Z,43.38
2019-04-16T09:49:00.339Z,128.43
2019-04-16T09:51:28.894Z,28.97
2019-04-16T09:53:57.360Z,16.20
2019-04-16T09:56:32.142Z,15.65
2019-04-16T09:59:07.159Z,13.23
2019-04-16T10:01:37.486Z,11.15
2019-04-16T10:04:07.626Z,13.17
2019-04-16T10:06:36.100Z,14.15
2019-04-16T10:09:06.860Z,15.68
2019-04-16T10:11:35.848Z,13.30
2019-04-16T10:14:05.607Z,11.20
2019-04-16T10:16:34.189Z,12.47
2019-04-16T10:19:07.638Z,12.15
2019-04-16T10:21:32.940Z,12.70
2019-04-16T10:24:15.101Z,15.18
2019-04-16T10:26:45.276Z,13.27
2019-04-16T10:29:15.462Z,12.07
2019-04-16T10:31:45.011Z,16.27
2019-04-16T10:34:13.493Z,14.40
2019-04-16T10:36:42.013Z,12.15
2019-04-16T10:39:21.157Z,12.10
2019-04-16T10:42:02.858Z,14.77
2019-04-16T10:47:12.554Z,26.87
2019-04-16T10:49:42.912Z,40.43
2019-04-16T10:52:29.459Z,12.07
2019-04-16T10:55:02.305Z,13.32
2019-04-16T10:57:32.447Z,15.35
2019-04-16T11:00:14.679Z,15.48
2019-04-16T11:02:50.565Z,15.38
2019-04-16T11:05:35.764Z,16.00
2019-04-16T11:08:07.547Z,12.45
2019-04-16T11:10:35.207Z,11.80
2019-04-16T11:13:05.361Z,19.62
2019-04-16T11:15:33.846Z,15.05
2019-04-16T11:18:02.308Z,11.80
2019-04-16T11:20:30.900Z,28.20
2019-04-16T11:22:59.445Z,16.17
2019-04-16T11:25:29.021Z,11.10
2019-04-16T11:27:57.497Z,13.15
2019-04-16T11:30:31.291Z,13.13
2019-04-16T11:33:00.059Z,14.50
2019-04-16T11:35:28.539Z,16.42
2019-04-16T11:37:57.055Z,10.23
2019-04-16T11:40:25.674Z,13.85
2019-04-16T11:42:54.261Z,11.57
2019-04-16T11:45:22.864Z,12.98
2019-04-16T11:47:51.359Z,13.48
2019-04-16T11:50:19.911Z,13.30
2019-04-16T11:52:48.381Z,13.48
2019-04-16T11:55:16.976Z,12.30
2019-04-16T11:57:45.497Z,12.85
2019-04-16T12:00:16.176Z,10.13
2019-04-16T12:03:01.411Z,13.73
2019-04-16T12:05:37.240Z,13.20
2019-04-16T12:08:19.633Z,14.15
2019-04-16T12:11:02.014Z,10.15
2019-04-16T12:13:35.045Z,11.05
2019-04-16T12:16:08.372Z,11.95
2019-04-16T12:18:53.465Z,17.23
2019-04-16T12:21:32.599Z,12.03
2019-04-16T12:24:18.648Z,13.22
2019-04-16T12:26:48.927Z,73.42
2019-04-16T12:29:30.855Z,17.25
2019-04-16T12:34:32.054Z,11.63
2019-04-16T12:37:20.263Z,12.70
2019-04-16T12:40:06.629Z,12.40
2019-04-16T12:42:41.206Z,12.33
2019-04-16T12:45:18.039Z,10.70
2019-04-16T12:47:48.181Z,9.00
2019-04-16T12:50:24.623Z,15.05
2019-04-16T12:53:03.407Z,9.85
2019-04-16T12:55:42.902Z,12.03
2019-04-16T12:58:20.176Z,18.80
2019-04-16T13:01:06.516Z,9.23
2019-04-16T13:03:36.656Z,12.45
2019-04-16T13:06:06.908Z,13.90
2019-04-16T13:08:37.084Z,15.85
2019-04-16T13:11:10.015Z,10.95
2019-04-16T13:13:42.839Z,12.68
2019-04-16T13:16:12.951Z,9.70
2019-04-16T13:18:58.948Z,8.68
2019-04-16T13:21:29.125Z,7.10
2019-04-16T13:23:59.264Z,11.03
2019-04-16T13:26:29.378Z,9.78
2019-04-16T13:28:59.772Z,8.78
2019-04-16T13:31:28.257Z,8.40
2019-04-16T13:33:56.762Z,11.28
2019-04-16T13:36:27.878Z,10.65
2019-04-16T13:38:57.156Z,13.90
2019-04-16T13:41:26.997Z,9.95
2019-04-16T13:44:09.269Z,8.88
2019-04-16T13:46:36.771Z,8.00
2019-04-16T13:49:10.453Z,10.80
2019-04-16T13:51:39.020Z,10.20
2019-04-16T13:54:09.185Z,9.30
2019-04-16T13:56:51.505Z,8.70
2019-04-16T13:59:30.996Z,9.53
2019-04-16T14:02:04.704Z,26.95
2019-04-16T14:04:36.730Z,11.60
2019-04-16T14:07:03.812Z,11.43
2019-04-16T14:09:32.318Z,13.90
2019-04-16T14:12:01.048Z,10.78
2019-04-16T14:14:29.546Z,11.05
2019-04-16T14:17:08.252Z,19.75
2019-04-16T14:19:28.338Z,22.82
2019-04-16T14:21:56.847Z,10.05
2019-04-16T14:24:25.384Z,11.93
2019-04-16T14:26:53.877Z,9.07
2019-04-16T14:29:24.906Z,20.43
2019-04-16T14:31:52.428Z,8.55
2019-04-16T14:34:34.383Z,18.40
2019-04-16T14:37:03.067Z,24.30
2019-04-16T14:39:35.987Z,17.25
2019-04-16T14:42:04.942Z,32.40
2019-04-16T14:44:43.618Z,39.03
2019-04-16T14:47:12.216Z,9.75
2019-04-16T14:49:40.771Z,29.10
2019-04-16T14:52:09.334Z,9.85
2019-04-16T14:54:51.350Z,10.70
2019-04-16T15:00:06.755Z,15.97
2019-04-16T15:02:48.891Z,16.48
2019-04-16T15:05:22.238Z,14.47
2019-04-16T15:07:58.615Z,17.80
2019-04-16T15:10:31.937Z,14.47
2019-04-16T15:13:17.235Z,9.93
2019-04-16T15:15:47.972Z,12.98
2019-04-16T15:18:18.106Z,12.27
2019-04-16T15:21:03.842Z,8.40
2019-04-16T15:23:46.820Z,9.73
2019-04-16T15:26:17.045Z,11.68
2019-04-16T15:28:49.884Z,10.38
2019-04-16T15:31:36.418Z,11.18
2019-04-16T15:34:11.231Z,12.75
2019-04-16T15:36:41.450Z,9.10
2019-04-16T15:39:11.655Z,15.55
2019-04-16T15:41:47.737Z,11.63
2019-04-16T15:44:23.580Z,16.25
2019-04-16T15:46:52.532Z,14.35
2019-04-16T15:49:39.115Z,16.60
2019-04-16T15:52:25.866Z,25.48
2019-04-16T15:55:08.052Z,24.50
2019-04-16T15:57:41.124Z,31.30
2019-04-16T16:00:14.733Z,22.25
2019-04-16T16:02:57.164Z,22.05
2019-04-16T16:05:33.457Z,14.87
2019-04-16T16:08:20.142Z,11.43
2019-04-16T16:10:52.979Z,13.58
2019-04-16T16:13:22.852Z,12.50
2019-04-16T16:15:51.720Z,15.63
2019-04-16T16:18:20.482Z,15.38
2019-04-16T16:20:49.003Z,11.75
2019-04-16T16:23:17.558Z,18.62
2019-04-16T16:25:46.077Z,27.47
2019-04-16T16:28:14.599Z,19.27
2019-04-16T16:30:43.243Z,18.07
2019-04-16T16:33:11.799Z,23.63
2019-04-16T16:35:40.301Z,16.52
2019-04-16T16:38:11.134Z,12.55
2019-04-16T16:40:39.073Z,13.55
2019-04-16T16:43:08.735Z,11.83
2019-04-16T16:45:54.512Z,12.78
2019-04-16T16:48:24.314Z,16.75
2019-04-16T16:50:52.810Z,32.23
2019-04-16T16:53:31.922Z,15.60
2019-04-16T16:56:02.346Z,23.57
2019-04-16T16:58:35.394Z,19.33
2019-04-16T17:01:13.902Z,48.23
2019-04-16T17:03:43.570Z,261.35
2019-04-16T17:06:13.880Z,147.90
2019-04-16T17:08:42.424Z,118.87
2019-04-16T17:11:16.605Z,70.03
2019-04-16T17:13:41.185Z,56.73
2019-04-16T17:16:13.303Z,32.02
2019-04-16T17:18:39.972Z,26.70
2019-04-16T17:21:08.486Z,59.55
2019-04-16T17:23:36.984Z,37.93
2019-04-16T17:26:05.525Z,34.00
2019-04-16T17:28:34.020Z,29.55
2019-04-16T17:31:02.585Z,29.95
2019-04-16T17:33:31.126Z,27.90
2019-04-16T17:35:59.699Z,35.70
2019-04-16T17:38:28.296Z,29.95
2019-04-16T17:40:59.867Z,37.75
2019-04-16T17:43:33.102Z,34.13
2019-04-16T17:48:58.281Z,30.05
2019-04-16T17:51:28.417Z,30.82
2019-04-16T17:54:04.675Z,34.15
2019-04-16T17:56:43.444Z,29.50
2019-04-16T17:59:16.699Z,37.60
2019-04-16T18:02:02.767Z,34.23
2019-04-16T18:04:32.938Z,36.63
2019-04-16T18:07:06.067Z,33.30
2019-04-16T18:09:45.150Z,56.77
2019-04-16T18:12:19.806Z,105.10
2019-04-16T18:14:58.703Z,97.88
2019-04-16T18:17:47.319Z,110.48
2019-04-16T18:20:20.940Z,92.40
2019-04-16T18:23:00.077Z,59.77
2019-04-16T18:25:30.252Z,38.53
2019-04-16T18:28:05.415Z,32.13
2019-04-16T18:30:46.303Z,43.92
2019-04-16T18:33:22.498Z,25.90
2019-04-16T18:36:07.986Z,34.23
2019-04-16T18:39:03.209Z,32.80
2019-04-16T18:41:30.910Z,38.33
2019-04-16T18:44:09.816Z,40.23
2019-04-16T18:46:42.517Z,33.90
2019-04-16T18:49:14.400Z,25.32
2019-04-16T18:51:42.893Z,33.73
2019-04-16T18:54:11.407Z,33.75
2019-04-16T18:56:39.904Z,30.10
2019-04-16T18:59:08.568Z,30.02
2019-04-16T19:01:38.695Z,31.20
2019-04-16T19:04:07.221Z,31.12
2019-04-16T19:06:35.968Z,43.00
2019-04-16T19:09:06.700Z,29.48
2019-04-16T19:11:35.306Z,51.68
2019-04-16T19:14:03.949Z,29.02
2019-04-16T19:16:32.483Z,34.00
2019-04-16T19:19:01.024Z,31.73
2019-04-16T19:21:29.589Z,38.88
2019-04-16T19:24:02.851Z,35.90
2019-04-16T19:26:31.497Z,44.90
2019-04-16T19:29:00.086Z,33.53
2019-04-16T19:31:28.579Z,43.50
2019-04-16T19:33:57.107Z,60.40
2019-04-16T19:36:27.482Z,69.35
2019-04-16T19:38:55.953Z,59.43
2019-04-16T19:41:24.733Z,57.50
2019-04-16T19:43:53.744Z,67.83
2019-04-16T19:46:22.325Z,72.50
2019-04-16T19:48:51.157Z,71.47
2019-04-16T19:51:19.951Z,63.35
2019-04-16T19:53:48.671Z,53.30
2019-04-16T19:56:18.505Z,56.73
2019-04-16T19:58:48.143Z,61.50
2019-04-16T20:01:16.770Z,77.87
2019-04-16T20:03:47.989Z,71.13
2019-04-16T20:08:44.436Z,76.67
2019-04-16T20:11:12.940Z,80.87
2019-04-16T20:13:41.476Z,104.53
2019-04-16T20:16:09.998Z,101.38
2019-04-16T20:18:50.310Z,114.32
2019-04-16T20:21:08.743Z,115.12
2019-04-16T20:23:37.303Z,100.87
2019-04-16T20:26:05.974Z,82.20
2019-04-16T20:28:34.531Z,83.17
2019-04-16T20:31:04.287Z,84.10
2019-04-16T20:33:33.342Z,86.13
2019-04-16T20:36:01.922Z,76.28
2019-04-16T20:38:30.392Z,61.98
2019-04-16T20:40:58.973Z,65.87
2019-04-16T20:43:27.441Z,53.10
2019-04-16T20:45:55.927Z,51.75
2019-04-16T20:48:24.396Z,51.18
2019-04-16T20:50:56.634Z,47.73
2019-04-16T20:53:23.100Z,45.35
2019-04-16T20:55:51.685Z,51.10
2019-04-16T20:58:20.158Z,50.63
2019-04-16T21:00:51.287Z,46.40
2019-04-16T21:03:22.555Z,45.00
2019-04-16T21:05:58.022Z,47.27
2019-04-16T21:08:24.450Z,47.43
2019-04-16T21:10:50.487Z,61.90
2019-04-16T21:13:18.999Z,47.75
2019-04-16T21:15:47.457Z,50.00
2019-04-16T21:18:15.929Z,52.17
2019-04-16T21:20:50.840Z,53.42
2019-04-16T21:23:16.242Z,50.00
2019-04-16T21:25:45.991Z,54.60
2019-04-16T21:28:16.585Z,51.55
2019-04-16T21:30:45.852Z,59.50
2019-04-16T21:33:31.137Z,50.00
2019-04-16T21:36:04.818Z,53.17
2019-04-16T21:41:11.342Z,75.93
2019-04-16T21:43:40.415Z,51.77
2019-04-16T21:46:09.140Z,52.78
2019-04-16T21:48:37.629Z,71.07
2019-04-16T21:51:06.110Z,41.33
2019-04-16T21:53:34.591Z,38.25
2019-04-16T21:56:06.405Z,43.87
2019-04-16T21:58:33.342Z,43.20
2019-04-16T22:01:05.138Z,44.90
2019-04-16T22:03:35.547Z,37.75
2019-04-16T22:06:04.183Z,43.63
2019-04-16T22:08:32.595Z,63.68
2019-04-16T22:11:01.097Z,44.35
2019-04-16T22:13:29.565Z,36.48
2019-04-16T22:15:58.733Z,37.20
2019-04-16T22:18:27.408Z,45.12
2019-04-16T22:20:56.113Z,46.05
2019-04-16T22:23:24.534Z,72.17
2019-04-16T22:25:53.009Z,64.07
2019-04-16T22:28:21.507Z,47.33
2019-04-16T22:30:51.479Z,82.40
2019-04-16T22:33:20.303Z,68.02
2019-04-16T22:35:48.773Z,53.42
2019-04-16T22:38:17.263Z,46.10
2019-04-16T22:40:51.630Z,34.57
2019-04-16T22:43:39.585Z,43.05
2019-04-16T22:46:10.388Z,48.68
2019-04-16T22:48:40.544Z,37.07
2019-04-16T22:51:10.016Z,54.00
2019-04-16T22:53:39.208Z,37.23
2019-04-16T22:56:07.695Z,28.07
2019-04-16T22:58:48.806Z,26.57
2019-04-16T23:01:19.557Z,28.03
2019-04-16T23:03:49.744Z,31.13
2019-04-16T23:06:18.360Z,29.57
2019-04-16T23:08:46.827Z,33.80
2019-04-16T23:11:15.413Z,33.55
2019-04-16T23:13:43.876Z,33.73
2019-04-16T23:16:12.384Z,27.67
2019-04-16T23:18:40.875Z,23.70
2019-04-16T23:21:11.339Z,19.87
2019-04-16T23:23:39.541Z,19.25
2019-04-16T23:26:08.046Z,18.27
2019-04-16T23:28:36.560Z,20.15
2019-04-16T23:31:05.159Z,19.37
2019-04-16T23:33:33.644Z,16.15
2019-04-16T23:36:02.323Z,17.37
2019-04-16T23:38:31.573Z,21.48
2019-04-16T23:41:00.946Z,19.65
2019-04-16T23:43:33.849Z,15.48
2019-04-16T23:46:20.263Z,18.57
2019-04-16T23:48:53.374Z,19.02
2019-04-16T23:51:29.729Z,18.80
2019-04-16T23:53:59.880Z,19.05
2019-04-16T23:56:32.881Z,18.35
2019-04-16T23:59:05.742Z,21.77
